createdAt,value
2019-03-31T00:00:10.783Z,6.24
2019-03-31T00:02:46.666Z,6.24
2019-03-31T00:05:19.839Z,6.30
2019-03-31T00:07:56.204Z,6.30
2019-03-31T00:10:29.319Z,6.24
2019-03-31T00:13:03.063Z,6.22
2019-03-31T00:15:37.064Z,6.20
2019-03-31T00:18:11.250Z,6.21
2019-03-31T00:20:45.847Z,6.21
2019-03-31T00:23:18.765Z,6.19
2019-03-31T00:25:52.853Z,6.19
2019-03-31T00:28:26.050Z,6.11
2019-03-31T00:31:00.123Z,6.18
2019-03-31T00:33:33.013Z,6.14
2019-03-31T00:36:06.280Z,6.23
2019-03-31T00:38:39.005Z,6.20
2019-03-31T00:41:12.095Z,6.30
2019-03-31T00:43:44.776Z,6.22
2019-03-31T00:46:17.137Z,6.22
2019-03-31T00:52:40.522Z,6.23
2019-03-31T00:55:15.529Z,6.03
2019-03-31T00:57:48.368Z,6.03
2019-03-31T01:00:42.322Z,6.14
2019-03-31T01:03:16.792Z,5.99
2019-03-31T01:05:50.365Z,5.97
2019-03-31T01:08:24.403Z,5.88
2019-03-31T01:10:57.633Z,5.93
2019-03-31T01:13:29.603Z,5.90
2019-03-31T01:16:02.401Z,5.86
2019-03-31T01:18:34.187Z,5.85
2019-03-31T01:21:07.390Z,5.63
2019-03-31T01:23:42.908Z,5.43
2019-03-31T01:26:21.044Z,5.42
2019-03-31T01:28:53.428Z,5.40
2019-03-31T01:31:28.298Z,5.47
2019-03-31T01:34:02.393Z,5.44
2019-03-31T01:36:35.330Z,5.43
2019-03-31T01:39:09.912Z,5.33
2019-03-31T01:41:44.483Z,5.19
2019-03-31T01:44:19.324Z,5.15
2019-03-31T01:46:54.102Z,5.00
2019-03-31T01:49:27.409Z,5.02
2019-03-31T01:52:00.658Z,4.94
2019-03-31T01:54:35.573Z,4.36
2019-03-31T01:57:11.365Z,4.89
2019-03-31T01:59:45.544Z,4.79
2019-03-31T02:02:28.029Z,4.71
2019-03-31T02:05:04.371Z,4.74
2019-03-31T02:07:38.425Z,4.75
2019-03-31T02:10:12.166Z,4.76
2019-03-31T02:12:46.277Z,4.69
2019-03-31T02:15:19.284Z,4.89
2019-03-31T02:17:55.212Z,4.78
2019-03-31T02:20:29.244Z,4.64
2019-03-31T02:23:02.693Z,4.79
2019-03-31T02:25:35.765Z,4.88
2019-03-31T02:28:07.535Z,4.90
2019-03-31T02:30:41.916Z,4.87
2019-03-31T02:33:15.694Z,4.87
2019-03-31T02:35:47.633Z,4.89
2019-03-31T02:38:19.630Z,4.84
2019-03-31T02:40:53.747Z,4.85
2019-03-31T02:43:27.763Z,4.92
2019-03-31T02:45:59.545Z,4.80
2019-03-31T02:48:33.647Z,4.93
2019-03-31T02:51:05.767Z,4.87
2019-03-31T02:53:38.704Z,4.99
2019-03-31T02:56:11.952Z,5.03
2019-03-31T02:58:45.056Z,5.09
2019-03-31T03:01:18.254Z,5.17
2019-03-31T03:03:53.017Z,5.04
2019-03-31T03:06:27.168Z,5.07
2019-03-31T03:09:01.898Z,5.16
2019-03-31T03:11:36.993Z,5.19
2019-03-31T03:14:10.366Z,5.25
2019-03-31T03:16:44.682Z,5.12
2019-03-31T03:19:17.902Z,4.96
2019-03-31T03:21:49.880Z,5.06
2019-03-31T03:24:23.983Z,5.00
2019-03-31T03:26:58.425Z,4.95
2019-03-31T03:29:30.252Z,5.12
2019-03-31T03:32:02.863Z,5.14
2019-03-31T03:34:35.926Z,5.16
2019-03-31T03:37:08.848Z,4.84
2019-03-31T03:39:42.714Z,4.85
2019-03-31T03:42:14.988Z,4.82
2019-03-31T03:44:47.805Z,4.87
2019-03-31T03:47:21.078Z,4.75
2019-03-31T03:49:55.050Z,4.72
2019-03-31T03:52:27.830Z,4.75
2019-03-31T03:55:02.113Z,4.81
2019-03-31T03:57:36.015Z,4.86
2019-03-31T04:00:10.183Z,4.77
2019-03-31T04:02:46.263Z,4.80
2019-03-31T04:05:20.692Z,4.83
2019-03-31T04:07:54.054Z,4.84
2019-03-31T04:11:20.945Z,4.85
2019-03-31T04:14:19.676Z,4.69
2019-03-31T04:17:18.667Z,4.76
2019-03-31T04:20:19.472Z,4.79
2019-03-31T04:23:17.774Z,4.87
2019-03-31T04:26:14.908Z,4.89
2019-03-31T04:29:19.266Z,4.92
2019-03-31T04:32:21.169Z,4.92
2019-03-31T04:35:38.040Z,4.91
2019-03-31T04:38:36.529Z,4.85
2019-03-31T04:41:35.993Z,5.09
2019-03-31T04:44:43.212Z,4.95
2019-03-31T04:47:47.512Z,5.04
2019-03-31T04:50:48.144Z,4.95
2019-03-31T04:53:52.486Z,4.95
2019-03-31T04:56:50.223Z,4.91
2019-03-31T04:59:41.196Z,4.87
2019-03-31T05:02:40.411Z,4.91
2019-03-31T05:05:41.635Z,4.94
2019-03-31T05:08:39.712Z,4.93
2019-03-31T05:11:29.513Z,4.97
2019-03-31T05:14:05.010Z,5.04
2019-03-31T05:16:41.043Z,5.04
2019-03-31T05:19:13.570Z,5.06
2019-03-31T05:21:48.281Z,5.02
2019-03-31T05:24:22.437Z,5.09
2019-03-31T05:26:54.272Z,5.16
2019-03-31T05:29:27.765Z,5.23
2019-03-31T05:32:00.539Z,5.30
2019-03-31T05:34:33.468Z,5.31
2019-03-31T05:37:06.646Z,5.26
2019-03-31T05:39:39.461Z,5.29
2019-03-31T05:42:12.423Z,5.28
2019-03-31T05:44:47.144Z,5.17
2019-03-31T05:47:19.312Z,5.31
2019-03-31T05:49:51.479Z,5.29
2019-03-31T05:52:24.571Z,5.27
2019-03-31T05:54:57.466Z,5.26
2019-03-31T05:57:29.625Z,5.59
2019-03-31T06:00:03.611Z,5.39
2019-03-31T06:02:36.543Z,5.46
2019-03-31T06:05:08.722Z,5.33
2019-03-31T06:07:42.811Z,5.24
2019-03-31T06:10:15.596Z,5.57
2019-03-31T06:12:50.121Z,5.42
2019-03-31T06:15:23.259Z,5.51
2019-03-31T06:17:59.229Z,5.65
2019-03-31T06:20:32.719Z,5.76
2019-03-31T06:23:08.627Z,5.74
2019-03-31T06:25:41.522Z,5.78
2019-03-31T06:28:17.342Z,5.86
2019-03-31T06:30:50.606Z,5.91
2019-03-31T06:33:25.950Z,5.91
2019-03-31T06:35:59.881Z,6.02
2019-03-31T06:38:32.662Z,6.08
2019-03-31T06:41:05.866Z,6.17
2019-03-31T06:43:38.608Z,6.26
2019-03-31T06:46:12.698Z,6.41
2019-03-31T06:48:45.656Z,6.46
2019-03-31T06:51:17.833Z,6.55
2019-03-31T06:53:50.804Z,6.80
2019-03-31T06:56:23.918Z,6.85
2019-03-31T06:58:57.919Z,7.07
2019-03-31T07:01:29.857Z,7.30
2019-03-31T07:04:04.008Z,7.45
2019-03-31T07:06:35.818Z,7.71
2019-03-31T07:09:09.954Z,7.91
2019-03-31T07:11:41.786Z,8.01
2019-03-31T07:14:14.733Z,8.30
2019-03-31T07:20:12.527Z,8.81
2019-03-31T07:22:48.318Z,9.00
2019-03-31T07:25:20.842Z,9.25
2019-03-31T07:27:53.797Z,9.47
2019-03-31T07:30:28.395Z,9.48
2019-03-31T07:33:00.907Z,9.59
2019-03-31T07:35:33.048Z,9.69
2019-03-31T07:38:06.062Z,9.92
2019-03-31T07:40:39.112Z,10.06
2019-03-31T07:43:12.228Z,10.10
2019-03-31T07:45:46.900Z,10.38
2019-03-31T07:48:20.945Z,10.33
2019-03-31T07:50:55.686Z,10.55
2019-03-31T07:53:30.023Z,10.68
2019-03-31T07:56:03.391Z,10.77
2019-03-31T07:58:35.967Z,10.65
2019-03-31T08:01:08.934Z,10.90
2019-03-31T08:03:43.010Z,11.22
2019-03-31T08:06:16.200Z,11.40
2019-03-31T08:08:48.127Z,11.55
2019-03-31T08:11:22.105Z,11.71
2019-03-31T08:13:57.793Z,11.78
2019-03-31T08:16:29.875Z,11.83
2019-03-31T08:19:04.798Z,11.89
2019-03-31T08:21:40.093Z,12.06
2019-03-31T08:24:12.219Z,12.19
2019-03-31T08:26:46.476Z,12.20
2019-03-31T08:29:20.973Z,12.20
2019-03-31T08:31:54.296Z,12.39
2019-03-31T08:34:27.343Z,12.44
2019-03-31T08:36:59.225Z,12.51
2019-03-31T08:39:33.237Z,12.50
2019-03-31T08:42:06.234Z,12.54
2019-03-31T08:44:39.198Z,12.57
2019-03-31T08:47:11.225Z,12.84
2019-03-31T08:49:46.837Z,13.14
2019-03-31T08:52:21.402Z,13.14
2019-03-31T08:54:55.847Z,13.35
2019-03-31T08:57:29.869Z,13.44
2019-03-31T09:00:01.665Z,13.46
2019-03-31T09:02:35.081Z,13.78
2019-03-31T09:05:10.349Z,13.83
2019-03-31T09:07:42.348Z,13.73
2019-03-31T09:10:17.200Z,13.99
2019-03-31T09:12:53.140Z,13.98
2019-03-31T09:15:27.434Z,14.15
2019-03-31T09:18:01.411Z,14.50
2019-03-31T09:20:33.384Z,14.55
2019-03-31T09:23:06.556Z,14.62
2019-03-31T09:25:39.352Z,14.64
2019-03-31T09:28:12.339Z,14.70
2019-03-31T09:30:45.507Z,14.83
2019-03-31T09:33:21.254Z,14.77
2019-03-31T09:35:54.395Z,14.92
2019-03-31T09:38:27.591Z,15.16
2019-03-31T09:41:00.587Z,15.15
2019-03-31T09:43:33.537Z,15.70
2019-03-31T09:46:07.731Z,15.68
2019-03-31T09:48:40.645Z,15.99
2019-03-31T09:51:13.604Z,15.63
2019-03-31T09:53:46.580Z,15.92
2019-03-31T09:56:20.554Z,16.01
2019-03-31T09:58:54.692Z,16.29
2019-03-31T10:01:27.965Z,16.09
2019-03-31T10:04:00.599Z,16.59
2019-03-31T10:06:34.053Z,16.72
2019-03-31T10:09:08.682Z,16.77
2019-03-31T10:11:42.971Z,16.85
2019-03-31T10:14:16.551Z,17.68
2019-03-31T10:16:48.710Z,17.01
2019-03-31T10:19:21.769Z,17.29
2019-03-31T10:21:54.663Z,17.85
2019-03-31T10:24:26.648Z,18.31
2019-03-31T10:27:00.977Z,18.10
2019-03-31T10:29:33.833Z,18.02
2019-03-31T10:32:06.661Z,17.55
2019-03-31T10:34:39.741Z,17.73
2019-03-31T10:37:12.248Z,17.87
2019-03-31T10:39:45.990Z,17.74
2019-03-31T10:42:18.892Z,17.77
2019-03-31T10:44:51.836Z,18.27
2019-03-31T10:47:24.829Z,18.88
2019-03-31T10:49:58.810Z,18.60
2019-03-31T10:52:30.833Z,19.05
2019-03-31T10:55:05.357Z,18.62
2019-03-31T10:57:41.532Z,19.02
2019-03-31T11:00:19.432Z,18.72
2019-03-31T11:02:55.481Z,18.18
2019-03-31T11:05:31.673Z,18.42
2019-03-31T11:08:06.218Z,17.95
2019-03-31T11:10:41.803Z,18.68
2019-03-31T11:13:15.497Z,18.63
2019-03-31T11:15:49.674Z,19.05
2019-03-31T11:18:25.790Z,18.82
2019-03-31T11:21:01.431Z,18.42
2019-03-31T11:23:35.060Z,18.60
2019-03-31T11:26:09.491Z,18.38
2019-03-31T11:28:43.392Z,18.54
2019-03-31T11:31:19.742Z,18.22
2019-03-31T11:33:53.825Z,18.23
2019-03-31T11:36:27.926Z,18.30
2019-03-31T11:39:00.077Z,18.60
2019-03-31T11:41:33.943Z,18.65
2019-03-31T11:44:07.117Z,19.16
2019-03-31T11:46:40.036Z,19.31
2019-03-31T11:49:14.049Z,19.21
2019-03-31T11:51:47.432Z,18.98
2019-03-31T11:54:21.234Z,18.75
2019-03-31T11:56:54.361Z,18.96
2019-03-31T11:59:28.028Z,19.12
2019-03-31T12:02:00.897Z,19.28
2019-03-31T12:04:33.812Z,19.32
2019-03-31T12:07:07.729Z,19.17
2019-03-31T12:09:40.327Z,19.09
2019-03-31T12:12:13.119Z,18.93
2019-03-31T12:14:59.560Z,18.79
2019-03-31T12:17:20.110Z,18.78
2019-03-31T12:19:54.114Z,18.58
2019-03-31T12:22:27.226Z,18.84
2019-03-31T12:25:02.550Z,18.48
2019-03-31T12:27:37.880Z,18.75
2019-03-31T12:30:18.654Z,18.72
2019-03-31T12:32:51.267Z,18.72
2019-03-31T12:35:25.342Z,18.76
2019-03-31T12:37:59.064Z,19.05
2019-03-31T12:40:32.643Z,18.77
2019-03-31T12:43:06.434Z,18.91
2019-03-31T12:45:42.934Z,18.77
2019-03-31T12:48:15.370Z,18.97
2019-03-31T12:50:48.377Z,18.66
2019-03-31T12:53:21.515Z,18.81
2019-03-31T12:56:00.246Z,18.80
2019-03-31T12:58:30.398Z,18.67
2019-03-31T13:01:03.456Z,19.04
2019-03-31T13:03:36.283Z,19.36
2019-03-31T13:06:09.243Z,18.60
2019-03-31T13:08:43.314Z,18.61
2019-03-31T13:11:15.417Z,18.93
2019-03-31T13:13:48.451Z,19.14
2019-03-31T13:16:21.533Z,18.91
2019-03-31T13:18:54.506Z,18.84
2019-03-31T13:21:27.501Z,18.93
2019-03-31T13:24:00.507Z,18.70
2019-03-31T13:26:33.490Z,18.50
2019-03-31T13:29:06.491Z,19.28
2019-03-31T13:31:39.554Z,19.43
2019-03-31T13:34:13.798Z,19.39
2019-03-31T13:36:50.106Z,19.50
2019-03-31T13:39:23.640Z,19.68
2019-03-31T13:41:57.495Z,19.70
2019-03-31T13:44:30.286Z,19.91
2019-03-31T13:47:05.295Z,19.52
2019-03-31T13:49:38.705Z,19.36
2019-03-31T13:52:10.635Z,19.54
2019-03-31T13:54:42.439Z,19.83
2019-03-31T13:57:16.254Z,19.98
2019-03-31T13:59:52.024Z,19.95
2019-03-31T14:02:26.963Z,19.71
2019-03-31T14:05:00.764Z,19.43
2019-03-31T14:07:33.643Z,19.62
2019-03-31T14:10:07.610Z,20.03
2019-03-31T14:12:41.550Z,20.27
2019-03-31T14:15:19.315Z,20.53
2019-03-31T14:17:51.824Z,20.69
2019-03-31T14:20:25.649Z,20.69
2019-03-31T14:22:57.645Z,20.68
2019-03-31T14:25:29.749Z,20.68
2019-03-31T14:28:02.779Z,20.88
2019-03-31T14:30:36.881Z,20.69
2019-03-31T14:33:09.712Z,20.87
2019-03-31T14:35:44.946Z,21.17
2019-03-31T14:38:18.703Z,21.10
2019-03-31T14:40:51.831Z,21.11
2019-03-31T14:43:27.827Z,21.23
2019-03-31T14:45:59.850Z,21.30
2019-03-31T14:48:33.894Z,21.09
2019-03-31T14:51:06.856Z,20.18
2019-03-31T14:53:39.827Z,20.17
2019-03-31T14:56:11.792Z,19.89
2019-03-31T14:58:45.769Z,19.72
2019-03-31T15:01:21.265Z,19.60
2019-03-31T15:03:53.824Z,19.73
2019-03-31T15:06:27.014Z,19.95
2019-03-31T15:09:00.910Z,19.81
2019-03-31T15:11:34.148Z,19.58
2019-03-31T15:14:07.179Z,19.58
2019-03-31T15:16:42.096Z,19.28
2019-03-31T15:19:16.262Z,19.49
2019-03-31T15:21:50.147Z,19.51
2019-03-31T15:24:23.090Z,19.46
2019-03-31T15:26:54.880Z,19.52
2019-03-31T15:29:27.113Z,19.77
2019-03-31T15:32:02.363Z,19.59
2019-03-31T15:34:37.553Z,19.90
2019-03-31T15:37:10.087Z,19.80
2019-03-31T15:39:43.077Z,19.65
2019-03-31T15:42:16.045Z,19.60
2019-03-31T15:44:49.236Z,19.79
2019-03-31T15:47:23.232Z,19.95
2019-03-31T15:49:57.179Z,20.23
2019-03-31T15:52:30.681Z,20.29
2019-03-31T15:55:04.101Z,20.66
2019-03-31T15:57:37.305Z,20.44
2019-03-31T16:00:10.821Z,20.28
2019-03-31T16:02:43.897Z,20.46
2019-03-31T16:05:19.180Z,20.38
2019-03-31T16:07:55.082Z,20.35
2019-03-31T16:10:29.314Z,20.41
2019-03-31T16:13:00.741Z,20.44
2019-03-31T16:15:33.937Z,20.47
2019-03-31T16:18:08.251Z,19.95
2019-03-31T16:20:39.796Z,19.41
2019-03-31T16:23:13.685Z,19.76
2019-03-31T16:25:49.381Z,19.73
2019-03-31T16:28:20.820Z,19.66
2019-03-31T16:30:54.821Z,19.66
2019-03-31T16:33:30.286Z,19.69
2019-03-31T16:36:03.641Z,20.02
2019-03-31T16:38:36.601Z,20.01
2019-03-31T16:41:08.858Z,19.79
2019-03-31T16:43:49.678Z,19.50
2019-03-31T16:46:23.737Z,19.50
2019-03-31T16:48:56.886Z,19.41
2019-03-31T16:51:29.994Z,19.36
2019-03-31T16:54:01.451Z,18.68
2019-03-31T16:56:34.905Z,18.29
2019-03-31T16:59:08.141Z,17.97
2019-03-31T17:01:41.981Z,17.67
2019-03-31T17:04:14.063Z,17.23
2019-03-31T17:06:46.881Z,16.95
2019-03-31T17:09:19.033Z,16.77
2019-03-31T17:11:50.283Z,16.65
2019-03-31T17:14:25.773Z,16.31
2019-03-31T17:17:02.359Z,15.97
2019-03-31T17:19:36.113Z,15.87
2019-03-31T17:22:08.145Z,15.88
2019-03-31T17:24:42.051Z,15.87
2019-03-31T17:27:15.083Z,15.66
2019-03-31T17:29:48.035Z,15.43
2019-03-31T17:32:21.904Z,15.37
2019-03-31T17:34:55.046Z,15.29
2019-03-31T17:37:26.257Z,15.43
2019-03-31T17:40:06.385Z,15.28
2019-03-31T17:42:33.230Z,15.24
2019-03-31T17:45:06.894Z,15.09
2019-03-31T17:47:38.979Z,15.04
2019-03-31T17:50:12.983Z,14.87
2019-03-31T17:52:51.692Z,14.93
2019-03-31T17:55:24.242Z,14.85
2019-03-31T17:57:58.240Z,14.71
2019-03-31T18:00:30.036Z,14.58
2019-03-31T18:03:02.604Z,14.55
2019-03-31T18:05:36.063Z,14.49
2019-03-31T18:08:09.269Z,14.44
2019-03-31T18:10:43.280Z,14.33
2019-03-31T18:13:16.479Z,14.23
2019-03-31T18:15:49.088Z,14.16
2019-03-31T18:18:22.410Z,14.09
2019-03-31T18:20:54.335Z,13.99
2019-03-31T18:23:28.903Z,13.99
2019-03-31T18:26:01.512Z,13.97
2019-03-31T18:28:33.674Z,13.84
2019-03-31T18:31:05.287Z,13.93
2019-03-31T18:33:39.051Z,13.49
2019-03-31T18:36:14.001Z,13.37
2019-03-31T18:38:46.256Z,13.35
2019-03-31T18:41:19.350Z,13.22
2019-03-31T18:43:53.257Z,13.22
2019-03-31T18:46:27.283Z,12.92
2019-03-31T18:49:02.292Z,12.83
2019-03-31T18:51:33.497Z,12.78
2019-03-31T18:54:19.077Z,12.54
2019-03-31T18:57:09.288Z,12.51
2019-03-31T19:00:09.352Z,12.55
2019-03-31T19:02:52.389Z,12.49
2019-03-31T19:05:41.560Z,12.51
2019-03-31T19:08:50.674Z,12.39
2019-03-31T19:11:32.668Z,12.46
2019-03-31T19:14:23.894Z,12.51
2019-03-31T19:17:01.380Z,12.43
2019-03-31T19:19:42.293Z,12.49
2019-03-31T19:22:48.327Z,12.34
2019-03-31T19:25:39.509Z,12.45
2019-03-31T19:28:33.431Z,12.35
2019-03-31T19:31:21.709Z,12.33
2019-03-31T19:34:10.861Z,12.05
2019-03-31T19:37:03.564Z,12.22
2019-03-31T19:39:54.506Z,12.01
2019-03-31T19:43:01.983Z,11.85
2019-03-31T19:46:05.172Z,11.82
2019-03-31T19:48:54.546Z,11.66
2019-03-31T19:51:48.307Z,11.70
2019-03-31T19:54:35.186Z,11.65
2019-03-31T19:57:30.105Z,11.42
2019-03-31T20:00:19.605Z,11.43
2019-03-31T20:03:05.978Z,11.40
2019-03-31T20:06:00.380Z,11.49
2019-03-31T20:08:44.322Z,11.57
2019-03-31T20:11:22.523Z,11.59
2019-03-31T20:14:04.161Z,11.48
2019-03-31T20:16:58.618Z,11.72
2019-03-31T20:20:07.363Z,11.74
2019-03-31T20:22:58.623Z,11.77
2019-03-31T20:29:20.423Z,11.65
2019-03-31T20:32:15.599Z,11.59
2019-03-31T20:35:05.434Z,11.64
2019-03-31T20:37:47.051Z,11.52
2019-03-31T20:40:37.847Z,11.57
2019-03-31T20:43:33.627Z,11.60
2019-03-31T20:46:06.891Z,11.67
2019-03-31T20:48:39.954Z,11.49
2019-03-31T20:51:12.472Z,11.49
2019-03-31T20:53:43.958Z,11.44
2019-03-31T20:56:17.939Z,11.37
2019-03-31T20:58:51.175Z,11.44
2019-03-31T21:01:23.100Z,11.45
2019-03-31T21:03:57.589Z,11.62
2019-03-31T21:06:28.922Z,11.46
2019-03-31T21:09:00.199Z,11.41
2019-03-31T21:11:33.907Z,11.39
2019-03-31T21:14:06.964Z,11.34
2019-03-31T21:16:42.475Z,11.31
2019-03-31T21:19:14.997Z,11.22
2019-03-31T21:21:48.183Z,11.06
2019-03-31T21:24:21.146Z,11.04
2019-03-31T21:26:58.595Z,11.06
2019-03-31T21:29:30.285Z,11.04
2019-03-31T21:32:02.279Z,10.93
2019-03-31T21:34:34.207Z,10.82
2019-03-31T21:37:06.342Z,10.79
2019-03-31T21:39:40.110Z,10.64
2019-03-31T21:42:16.114Z,10.73
2019-03-31T21:44:50.155Z,10.78
2019-03-31T21:47:21.399Z,10.82
2019-03-31T21:49:54.161Z,10.72
2019-03-31T21:52:26.985Z,10.83
2019-03-31T21:54:59.975Z,10.65
2019-03-31T21:57:31.221Z,10.74
2019-03-31T22:00:03.385Z,10.61
2019-03-31T22:02:39.379Z,10.66
2019-03-31T22:05:17.872Z,10.64
2019-03-31T22:07:50.386Z,10.48
2019-03-31T22:10:23.251Z,10.45
2019-03-31T22:12:57.337Z,10.40
2019-03-31T22:15:31.134Z,10.43
2019-03-31T22:18:04.423Z,10.53
2019-03-31T22:20:39.380Z,10.37
2019-03-31T22:23:12.279Z,10.40
2019-03-31T22:25:45.188Z,10.34
2019-03-31T22:28:18.409Z,10.31
2019-03-31T22:30:50.370Z,10.30
2019-03-31T22:33:24.405Z,10.22
2019-03-31T22:36:15.783Z,10.34
2019-03-31T22:38:48.874Z,10.30
2019-03-31T22:41:22.588Z,10.34
2019-03-31T22:43:55.481Z,10.30
2019-03-31T22:46:28.674Z,10.25
2019-03-31T22:49:00.326Z,10.28
2019-03-31T22:51:31.571Z,10.22
2019-03-31T22:54:03.457Z,10.30
2019-03-31T22:56:36.631Z,10.33
2019-03-31T22:59:09.969Z,10.34
2019-03-31T23:01:42.337Z,10.35
2019-03-31T23:04:15.318Z,10.42
2019-03-31T23:06:47.102Z,10.36
2019-03-31T23:09:19.123Z,10.30
2019-03-31T23:11:51.646Z,10.35
2019-03-31T23:14:24.616Z,10.24
2019-03-31T23:16:57.481Z,10.25
2019-03-31T23:19:30.690Z,10.27
2019-03-31T23:22:06.981Z,10.28
2019-03-31T23:24:39.514Z,10.33
2019-03-31T23:27:12.775Z,10.13
2019-03-31T23:29:47.311Z,10.14
2019-03-31T23:32:18.524Z,10.22
2019-03-31T23:34:53.285Z,10.22
2019-03-31T23:37:24.477Z,10.13
2019-03-31T23:39:58.781Z,10.11
2019-03-31T23:42:30.622Z,9.87
2019-03-31T23:45:04.267Z,9.94
2019-03-31T23:47:36.591Z,9.86
2019-03-31T23:50:07.818Z,9.90
2019-03-31T23:52:39.631Z,9.74
2019-03-31T23:55:11.221Z,9.63
2019-03-31T23:57:43.560Z,9.67
